Time;durP1;ratioP1;P1;durP2;ratioP2;P2;SDS_P1;SDS_P2;PMS_P1;PMS_P2;Temp;Humidity;BMP_temperature;BMP_pressure;BME280_temperature;BME280_humidity;BME280_pressure;Samples;Min_cycle;Max_cycle;Signal;HPM_P1;HPM_P2
2022/08/03 00:02:00;;;;;;;8.93;2.90;;;;;;;;;;5057428;28;20094;-61
2022/08/03 00:04:26;;;;;;;6.37;2.63;;;;;;;;;;5058703;28;20056;-61
2022/08/03 00:06:52;;;;;;;5.43;3.00;;;;;;;;;;5057040;28;20036;-61
2022/08/03 00:09:18;;;;;;;8.83;2.70;;;;;;;;;;5059794;28;20048;-61
2022/08/03 00:11:44;;;;;;;9.13;2.67;;;;;;;;;;5058105;28;20036;-61
2022/08/03 00:14:10;;;;;;;7.20;2.27;;;;;;;;;;5056429;28;20098;-62
2022/08/03 00:16:36;;;;;;;6.63;3.20;;;;;;;;;;5059357;28;20051;-60
2022/08/03 00:19:03;;;;;;;9.70;2.90;;;;;;;;;;5057406;28;20491;-60
2022/08/03 00:21:29;;;;;;;7.20;2.60;;;;;;;;;;5060388;28;20098;-60
2022/08/03 00:23:55;;;;;;;6.57;3.23;;;;;;;;;;5058484;28;20041;-60
2022/08/03 00:26:21;;;;;;;8.17;2.83;;;;;;;;;;5056701;28;20037;-60
2022/08/03 00:28:47;;;;;;;8.50;2.80;;;;;;;;;;5059865;28;20503;-60
2022/08/03 00:31:14;;;;;;;9.43;2.80;;;;;;;;;;5064588;28;20057;-60
2022/08/03 00:33:40;;;;;;;9.37;2.63;;;;;;;;;;5069589;28;20044;-61
2022/08/03 00:36:06;;;;;;;12.90;3.10;;;;;;;;;;5063758;28;20059;-60
2022/08/03 00:38:32;;;;;;;12.90;3.37;;;;;;;;;;5049235;28;20055;-62
2022/08/03 00:40:58;;;;;;;9.00;2.93;;;;;;;;;;5048984;28;20586;-60
2022/08/03 00:43:25;;;;;;;8.03;2.60;;;;;;;;;;5049333;28;20045;-60
2022/08/03 00:45:51;;;;;;;9.57;3.00;;;;;;;;;;5048499;28;20103;-60
2022/08/03 00:48:18;;;;;;;9.33;3.17;;;;;;;;;;5048986;28;20049;-60
2022/08/03 00:50:44;;;;;;;8.43;3.00;;;;;;;;;;5052277;28;20068;-60
2022/08/03 00:53:12;;;;;;;8.43;3.10;;;;;;;;;;5068637;28;20067;-61
2022/08/03 00:55:38;;;;;;;10.63;2.80;;;;;;;;;;5069188;28;20048;-61
2022/08/03 00:58:05;;;;;;;12.13;3.10;;;;;;;;;;5068817;28;20041;-60
2022/08/03 01:00:32;;;;;;;10.53;3.57;;;;;;;;;;5068750;28;20417;-60
2022/08/03 01:02:58;;;;;;;6.97;3.13;;;;;;;;;;5068899;28;20537;-61
2022/08/03 01:05:24;;;;;;;10.73;3.13;;;;;;;;;;5060321;28;20036;-60
2022/08/03 01:08:11;;;;;;;10.33;4.00;;;;;;;;;;5068781;28;20045;-60
2022/08/03 01:10:54;;;;;;;10.03;3.57;;;;;;;;;;5068307;28;20097;-61
2022/08/03 01:13:26;;;;;;;11.13;4.20;;;;;;;;;;5068527;28;20055;-60
2022/08/03 01:16:01;;;;;;;9.07;3.23;;;;;;;;;;5049086;28;20495;-60
2022/08/03 01:18:36;;;;;;;13.83;4.43;;;;;;;;;;5048009;28;20041;-61
2022/08/03 01:21:07;;;;;;;13.07;3.93;;;;;;;;;;5048032;28;20128;-61
2022/08/03 01:23:33;;;;;;;11.17;3.70;;;;;;;;;;5047642;28;20056;-60
2022/08/03 01:26:19;;;;;;;10.90;4.20;;;;;;;;;;5048038;28;20056;-60
2022/08/03 01:28:54;;;;;;;10.07;4.10;;;;;;;;;;5048006;28;20048;-60
2022/08/03 01:31:23;;;;;;;10.67;4.80;;;;;;;;;;5048974;28;20040;-61
2022/08/03 01:33:56;;;;;;;11.83;3.70;;;;;;;;;;5050285;28;20052;-62
2022/08/03 01:36:24;;;;;;;13.57;4.10;;;;;;;;;;5048474;28;20091;-60
2022/08/03 01:38:53;;;;;;;12.03;4.40;;;;;;;;;;5047519;28;20761;-60
2022/08/03 01:41:24;;;;;;;12.10;4.20;;;;;;;;;;5047795;28;20123;-60
2022/08/03 01:43:51;;;;;;;12.23;4.13;;;;;;;;;;5048012;28;20045;-61
2022/08/03 01:46:19;;;;;;;8.87;4.10;;;;;;;;;;5048198;28;20076;-61
2022/08/03 01:48:47;;;;;;;11.83;4.73;;;;;;;;;;5055762;28;20126;-61
2022/08/03 01:51:13;;;;;;;11.53;3.90;;;;;;;;;;5047901;28;20067;-60
2022/08/03 01:53:43;;;;;;;17.77;4.90;;;;;;;;;;5046492;28;20080;-60
2022/08/03 01:56:09;;;;;;;12.97;5.00;;;;;;;;;;5048259;28;20041;-61
2022/08/03 01:58:36;;;;;;;9.67;3.87;;;;;;;;;;5047793;28;20048;-60
2022/08/03 02:01:03;;;;;;;14.00;4.07;;;;;;;;;;5048193;28;20041;-61
2022/08/03 02:03:29;;;;;;;12.20;4.90;;;;;;;;;;5047854;28;20036;-61
2022/08/03 02:05:56;;;;;;;12.63;4.70;;;;;;;;;;5048659;28;20049;-60
2022/08/03 02:08:23;;;;;;;15.87;4.50;;;;;;;;;;5047796;28;20041;-60
2022/08/03 02:10:50;;;;;;;12.43;4.80;;;;;;;;;;5048325;28;20045;-61
2022/08/03 02:13:16;;;;;;;13.37;4.23;;;;;;;;;;5063755;28;20045;-61
2022/08/03 02:15:43;;;;;;;11.87;4.63;;;;;;;;;;5066012;28;20045;-60
2022/08/03 02:18:10;;;;;;;12.03;5.03;;;;;;;;;;5046429;28;20041;-60
2022/08/03 02:20:37;;;;;;;19.13;5.50;;;;;;;;;;5054675;28;20041;-61
2022/08/03 02:23:05;;;;;;;10.90;4.93;;;;;;;;;;5067957;28;20072;-61
2022/08/03 02:25:31;;;;;;;13.10;5.30;;;;;;;;;;5068203;28;20063;-60
2022/08/03 02:28:00;;;;;;;9.73;5.30;;;;;;;;;;5068070;28;20040;-60
2022/08/03 02:30:42;;;;;;;17.17;5.43;;;;;;;;;;5066476;28;20045;-60
2022/08/03 02:33:11;;;;;;;14.67;5.13;;;;;;;;;;5063861;28;20127;-60
2022/08/03 02:35:39;;;;;;;11.30;4.87;;;;;;;;;;5050066;28;20049;-61
2022/08/03 02:38:07;;;;;;;13.23;5.30;;;;;;;;;;5051900;28;20052;-61
2022/08/03 02:40:33;;;;;;;15.47;5.90;;;;;;;;;;5051624;28;20048;-60
2022/08/03 02:43:00;;;;;;;13.53;5.60;;;;;;;;;;5051400;28;20037;-61
2022/08/03 02:45:28;;;;;;;15.70;5.27;;;;;;;;;;5051953;28;20096;-61
2022/08/03 02:47:56;;;;;;;12.60;4.40;;;;;;;;;;5059326;28;20054;-61
2022/08/03 02:50:23;;;;;;;15.43;4.63;;;;;;;;;;5071480;28;20414;-60
2022/08/03 02:52:50;;;;;;;11.70;4.93;;;;;;;;;;5071215;28;20045;-60
2022/08/03 02:55:16;;;;;;;9.57;4.50;;;;;;;;;;5070955;28;20080;-61
2022/08/03 02:57:44;;;;;;;10.80;4.30;;;;;;;;;;5061178;28;20045;-60
2022/08/03 03:00:11;;;;;;;11.27;4.33;;;;;;;;;;5051131;28;20048;-60
2022/08/03 03:02:37;;;;;;;10.93;4.50;;;;;;;;;;5053871;28;20041;-61
2022/08/03 03:05:04;;;;;;;11.40;4.57;;;;;;;;;;5050990;28;20114;-60
2022/08/03 03:07:30;;;;;;;12.67;4.30;;;;;;;;;;5051053;28;20045;-61
2022/08/03 03:09:57;;;;;;;10.43;4.10;;;;;;;;;;5050810;28;20525;-61
2022/08/03 03:12:24;;;;;;;11.37;4.77;;;;;;;;;;5051075;28;20044;-61
2022/08/03 03:14:50;;;;;;;13.10;4.63;;;;;;;;;;5054278;28;20076;-60
2022/08/03 03:17:17;;;;;;;12.83;4.07;;;;;;;;;;5070993;28;20088;-60
2022/08/03 03:19:44;;;;;;;11.50;4.37;;;;;;;;;;5071216;28;20115;-60
2022/08/03 03:22:10;;;;;;;14.43;4.53;;;;;;;;;;5071019;28;20103;-61
2022/08/03 03:24:37;;;;;;;14.57;5.17;;;;;;;;;;5051912;28;20515;-61
2022/08/03 03:27:03;;;;;;;9.17;4.60;;;;;;;;;;5050872;28;20041;-60
2022/08/03 03:29:29;;;;;;;14.03;4.47;;;;;;;;;;5051326;28;20076;-60
2022/08/03 03:31:56;;;;;;;11.07;3.93;;;;;;;;;;5050912;28;20052;-61
2022/08/03 03:34:22;;;;;;;8.43;4.43;;;;;;;;;;5050998;28;20540;-60
2022/08/03 03:36:48;;;;;;;12.83;4.07;;;;;;;;;;5051028;28;20414;-61
2022/08/03 03:39:14;;;;;;;13.13;4.40;;;;;;;;;;5050151;28;20051;-61
2022/08/03 03:41:40;;;;;;;17.20;5.23;;;;;;;;;;5050634;28;20123;-61
2022/08/03 03:44:06;;;;;;;17.30;4.73;;;;;;;;;;5050681;28;20085;-60
2022/08/03 03:46:32;;;;;;;19.40;4.40;;;;;;;;;;5050506;28;20064;-60
2022/08/03 03:48:58;;;;;;;10.40;4.67;;;;;;;;;;5055793;28;20135;-60
2022/08/03 03:51:24;;;;;;;12.67;5.03;;;;;;;;;;5066475;28;20115;-60
2022/08/03 03:54:01;;;;;;;9.07;4.90;;;;;;;;;;5070578;28;20127;-61
2022/08/03 03:56:27;;;;;;;15.83;6.07;;;;;;;;;;5070593;28;20064;-61
2022/08/03 03:58:54;;;;;;;12.97;4.83;;;;;;;;;;5069744;28;20083;-61
2022/08/03 04:01:20;;;;;;;12.53;5.17;;;;;;;;;;5069551;28;20048;-61
2022/08/03 04:03:46;;;;;;;14.37;5.07;;;;;;;;;;5060218;28;20064;-61
2022/08/03 04:12:02;;;;;;;12.43;4.63;;;;;;;;;;5056401;28;20388;-60
2022/08/03 04:14:29;;;;;;;11.67;4.60;;;;;;;;;;5068896;28;20131;-61
2022/08/03 04:17:01;;;;;;;9.97;4.50;;;;;;;;;;5069634;28;20040;-61
2022/08/03 04:19:56;;;;;;;16.70;4.93;;;;;;;;;;5069179;28;20041;-61
2022/08/03 04:22:23;;;;;;;22.73;5.97;;;;;;;;;;5065041;28;20048;-61
2022/08/03 04:24:51;;;;;;;13.33;4.37;;;;;;;;;;5069410;28;20135;-61
2022/08/03 04:27:19;;;;;;;16.07;5.43;;;;;;;;;;5069362;28;20098;-61
2022/08/03 04:29:47;;;;;;;15.87;5.80;;;;;;;;;;5069315;28;20049;-61
2022/08/03 04:32:13;;;;;;;14.87;4.30;;;;;;;;;;5055165;28;20125;-61
2022/08/03 04:34:39;;;;;;;13.53;4.83;;;;;;;;;;5053249;28;20045;-61
2022/08/03 04:37:10;;;;;;;14.73;5.10;;;;;;;;;;5063727;28;20052;-61
2022/08/03 04:39:36;;;;;;;16.80;5.43;;;;;;;;;;5069615;28;20127;-61
2022/08/03 04:42:04;;;;;;;15.03;5.23;;;;;;;;;;5068506;28;20132;-61
2022/08/03 04:44:31;;;;;;;13.90;5.23;;;;;;;;;;5068401;28;20060;-61
2022/08/03 04:46:57;;;;;;;13.37;5.33;;;;;;;;;;5059909;28;20064;-61
2022/08/03 04:49:24;;;;;;;13.10;5.30;;;;;;;;;;5048985;28;20493;-61
2022/08/03 04:51:51;;;;;;;10.63;4.90;;;;;;;;;;5061424;28;20124;-61
2022/08/03 04:54:17;;;;;;;13.60;5.80;;;;;;;;;;5068957;28;20055;-61
2022/08/03 04:56:43;;;;;;;12.07;5.90;;;;;;;;;;5059106;28;20041;-61
2022/08/03 04:59:10;;;;;;;11.63;5.77;;;;;;;;;;5048809;28;20407;-61
2022/08/03 05:01:36;;;;;;;13.10;5.43;;;;;;;;;;5065260;28;20036;-61
2022/08/03 05:04:02;;;;;;;12.87;5.80;;;;;;;;;;5064381;28;20044;-61
2022/08/03 05:06:28;;;;;;;13.17;5.53;;;;;;;;;;5089068;28;20127;-61
2022/08/03 05:08:54;;;;;;;12.73;5.43;;;;;;;;;;5075093;28;20071;-61
2022/08/03 05:11:20;;;;;;;14.77;5.67;;;;;;;;;;5069121;28;20037;-61
2022/08/03 05:13:46;;;;;;;11.83;5.97;;;;;;;;;;5068374;28;20041;-61
2022/08/03 05:16:13;;;;;;;15.80;6.37;;;;;;;;;;5068516;28;20047;-62
2022/08/03 05:18:39;;;;;;;14.10;4.60;;;;;;;;;;5058585;28;20040;-62
2022/08/03 05:21:05;;;;;;;12.17;5.67;;;;;;;;;;5048349;28;20095;-61
2022/08/03 05:23:31;;;;;;;13.93;5.40;;;;;;;;;;5047017;28;20037;-62
2022/08/03 05:25:57;;;;;;;15.40;5.70;;;;;;;;;;5048141;28;20091;-61
2022/08/03 05:28:23;;;;;;;13.17;5.43;;;;;;;;;;5047792;28;20605;-61
2022/08/03 05:30:50;;;;;;;12.57;5.37;;;;;;;;;;5062614;28;20041;-62
2022/08/03 05:33:16;;;;;;;14.03;5.87;;;;;;;;;;5066957;28;20110;-62
2022/08/03 05:35:42;;;;;;;14.17;5.27;;;;;;;;;;5067674;28;20057;-61
2022/08/03 05:38:08;;;;;;;16.73;6.40;;;;;;;;;;5060614;28;20555;-61
2022/08/03 05:40:34;;;;;;;9.90;5.30;;;;;;;;;;5066614;28;20044;-61
2022/08/03 05:43:00;;;;;;;12.73;5.40;;;;;;;;;;5068443;28;20094;-61
2022/08/03 05:45:26;;;;;;;10.60;5.30;;;;;;;;;;5064350;28;20053;-62
2022/08/03 05:47:52;;;;;;;14.13;5.10;;;;;;;;;;5066926;28;20110;-62
2022/08/03 05:50:19;;;;;;;13.20;6.23;;;;;;;;;;5067436;28;20089;-61
2022/08/03 05:52:45;;;;;;;14.80;5.00;;;;;;;;;;5067226;28;20123;-62
2022/08/03 05:55:12;;;;;;;18.53;5.83;;;;;;;;;;5066820;28;20609;-62
2022/08/03 05:57:38;;;;;;;20.23;5.70;;;;;;;;;;5067636;28;20098;-61
2022/08/03 06:00:05;;;;;;;10.27;4.97;;;;;;;;;;5066716;28;20044;-62
2022/08/03 06:02:32;;;;;;;16.57;6.17;;;;;;;;;;5067697;28;20043;-62
2022/08/03 06:04:58;;;;;;;13.90;5.47;;;;;;;;;;5067920;28;20113;-62
2022/08/03 06:07:24;;;;;;;14.00;5.00;;;;;;;;;;5066424;28;20041;-62
2022/08/03 06:09:50;;;;;;;13.63;4.83;;;;;;;;;;5068852;28;20055;-61
2022/08/03 06:12:16;;;;;;;18.43;5.17;;;;;;;;;;5062227;28;20063;-62
2022/08/03 06:14:42;;;;;;;11.80;4.87;;;;;;;;;;5069781;28;20048;-62
2022/08/03 06:17:08;;;;;;;16.17;4.33;;;;;;;;;;5071348;28;20138;-62
2022/08/03 06:19:34;;;;;;;10.63;4.67;;;;;;;;;;5070395;28;20036;-62
2022/08/03 06:22:00;;;;;;;12.93;4.87;;;;;;;;;;5067875;28;20293;-62
2022/08/03 06:24:26;;;;;;;12.17;4.80;;;;;;;;;;5070755;28;20041;-61
2022/08/03 06:26:52;;;;;;;16.13;4.97;;;;;;;;;;5068885;28;20036;-62
2022/08/03 06:29:18;;;;;;;12.70;4.80;;;;;;;;;;5060169;28;20394;-62
2022/08/03 06:31:44;;;;;;;14.93;4.70;;;;;;;;;;5071519;28;20124;-61
2022/08/03 06:34:10;;;;;;;15.10;4.77;;;;;;;;;;5065890;28;20174;-61
2022/08/03 06:36:36;;;;;;;13.30;4.47;;;;;;;;;;5069123;28;20048;-62
2022/08/03 06:39:03;;;;;;;13.87;3.93;;;;;;;;;;5071640;28;20047;-61
2022/08/03 06:41:29;;;;;;;17.63;4.40;;;;;;;;;;5071030;28;20044;-61
2022/08/03 06:43:55;;;;;;;12.13;4.20;;;;;;;;;;5069789;28;20095;-61
2022/08/03 06:46:21;;;;;;;9.10;3.50;;;;;;;;;;5068995;28;20055;-61
2022/08/03 06:48:48;;;;;;;12.07;4.33;;;;;;;;;;5069255;28;20079;-61
2022/08/03 06:51:14;;;;;;;12.97;4.17;;;;;;;;;;5071322;28;20071;-61
2022/08/03 06:53:40;;;;;;;15.33;4.60;;;;;;;;;;5070024;28;20041;-61
2022/08/03 06:56:06;;;;;;;12.43;4.03;;;;;;;;;;5066781;28;20056;-61
2022/08/03 06:58:32;;;;;;;9.77;3.87;;;;;;;;;;5069833;28;20048;-61
2022/08/03 07:00:58;;;;;;;15.50;4.37;;;;;;;;;;5071375;28;20732;-61
2022/08/03 07:03:24;;;;;;;15.23;4.27;;;;;;;;;;5069640;28;20163;-61
2022/08/03 07:05:50;;;;;;;15.27;4.33;;;;;;;;;;5069466;28;20146;-61
2022/08/03 07:08:17;;;;;;;17.63;4.67;;;;;;;;;;5070403;28;20028;-61
2022/08/03 07:10:44;;;;;;;12.30;4.87;;;;;;;;;;5070490;28;20040;-62
2022/08/03 07:13:10;;;;;;;14.07;4.87;;;;;;;;;;5059211;28;20044;-61
2022/08/03 07:15:36;;;;;;;18.30;4.63;;;;;;;;;;5063650;28;20125;-61
2022/08/03 07:18:03;;;;;;;20.03;5.27;;;;;;;;;;5055314;28;20051;-61
2022/08/03 07:20:29;;;;;;;13.47;4.00;;;;;;;;;;5065306;28;20041;-61
2022/08/03 07:22:55;;;;;;;10.93;4.17;;;;;;;;;;5069908;28;20041;-61
2022/08/03 07:25:21;;;;;;;19.17;4.40;;;;;;;;;;5050766;28;20045;-61
2022/08/03 07:27:47;;;;;;;18.73;3.63;;;;;;;;;;5050762;28;20045;-61
2022/08/03 07:30:14;;;;;;;17.67;3.80;;;;;;;;;;5049869;28;20048;-61
2022/08/03 07:32:40;;;;;;;17.37;4.30;;;;;;;;;;5054057;28;20047;-61
2022/08/03 07:35:07;;;;;;;18.67;4.80;;;;;;;;;;5070726;28;20114;-61
2022/08/03 07:37:33;;;;;;;20.93;4.33;;;;;;;;;;5055839;28;20044;-61
2022/08/03 07:40:00;;;;;;;19.03;5.20;;;;;;;;;;5053817;28;20044;-61
2022/08/03 07:42:26;;;;;;;17.37;5.07;;;;;;;;;;5062323;28;20101;-61
2022/08/03 07:44:52;;;;;;;22.63;4.50;;;;;;;;;;5050197;28;20099;-60
2022/08/03 07:47:19;;;;;;;13.83;3.83;;;;;;;;;;5058910;28;20098;-60
2022/08/03 07:49:45;;;;;;;16.63;4.50;;;;;;;;;;5070075;28;20414;-60
2022/08/03 07:54:56;;;;;;;15.90;4.00;;;;;;;;;;5078314;28;20052;-61
2022/08/03 07:57:22;;;;;;;21.07;5.20;;;;;;;;;;5074153;28;20103;-61
2022/08/03 07:59:48;;;;;;;12.50;3.93;;;;;;;;;;5058328;28;20127;-61
2022/08/03 08:02:14;;;;;;;14.40;3.70;;;;;;;;;;5051794;28;20115;-61
2022/08/03 08:04:41;;;;;;;17.93;3.90;;;;;;;;;;5069187;28;20063;-61
2022/08/03 08:07:07;;;;;;;15.97;4.33;;;;;;;;;;5062777;28;20115;-61
2022/08/03 08:09:33;;;;;;;14.70;3.00;;;;;;;;;;5050134;28;20092;-61
2022/08/03 08:11:59;;;;;;;14.10;3.70;;;;;;;;;;5062454;28;20040;-61
2022/08/03 08:14:26;;;;;;;18.20;3.87;;;;;;;;;;5054544;28;20068;-61
2022/08/03 08:16:51;;;;;;;16.17;3.90;;;;;;;;;;5056598;28;21663;-61
2022/08/03 08:19:18;;;;;;;15.10;3.90;;;;;;;;;;5059894;28;20033;-61
2022/08/03 08:21:44;;;;;;;16.37;3.43;;;;;;;;;;5056843;28;20041;-61
2022/08/03 08:24:10;;;;;;;19.17;3.77;;;;;;;;;;5053460;28;20045;-61
2022/08/03 08:26:36;;;;;;;11.90;3.93;;;;;;;;;;5055346;28;20053;-60
2022/08/03 08:29:03;;;;;;;20.10;4.60;;;;;;;;;;5050917;28;20114;-61
2022/08/03 08:31:29;;;;;;;13.83;3.80;;;;;;;;;;5056018;28;20143;-60
2022/08/03 08:33:55;;;;;;;17.02;3.58;;;;;;;;;;5054341;28;20076;-60
2022/08/03 08:36:22;;;;;;;18.38;4.00;;;;;;;;;;5056524;28;20068;-61
2022/08/03 08:38:48;;;;;;;15.43;4.13;;;;;;;;;;5055491;28;20123;-61
2022/08/03 08:41:15;;;;;;;17.08;2.95;;;;;;;;;;5056589;28;20201;-60
2022/08/03 08:43:41;;;;;;;14.02;3.80;;;;;;;;;;5055743;28;20119;-60
2022/08/03 08:46:11;;;;;;;13.02;3.20;;;;;;;;;;5056903;28;20422;-60
2022/08/03 08:48:40;;;;;;;14.88;3.38;;;;;;;;;;5054716;28;20068;-60
2022/08/03 08:51:06;;;;;;;17.92;3.88;;;;;;;;;;5057144;28;20392;-60
2022/08/03 08:53:35;;;;;;;13.27;3.30;;;;;;;;;;5055252;28;20052;-60
2022/08/03 08:56:01;;;;;;;15.13;3.45;;;;;;;;;;5055445;28;20099;-61
2022/08/03 08:58:37;;;;;;;14.25;2.67;;;;;;;;;;5053190;28;20403;-60
2022/08/03 09:01:03;;;;;;;11.68;3.05;;;;;;;;;;5055212;28;20047;-61
2022/08/03 09:03:29;;;;;;;14.27;3.42;;;;;;;;;;5055655;28;20463;-60
2022/08/03 09:05:55;;;;;;;14.55;3.60;;;;;;;;;;5063381;28;20051;-60
2022/08/03 09:08:22;;;;;;;17.27;3.40;;;;;;;;;;5061807;28;20090;-60
2022/08/03 09:10:48;;;;;;;11.60;3.03;;;;;;;;;;5055595;28;20045;-60
2022/08/03 09:13:14;;;;;;;19.27;3.83;;;;;;;;;;5055956;28;20056;-60
2022/08/03 09:15:41;;;;;;;12.20;3.35;;;;;;;;;;5055407;28;20050;-60
2022/08/03 09:18:08;;;;;;;11.18;3.40;;;;;;;;;;5055320;28;20059;-60
2022/08/03 09:20:35;;;;;;;21.40;3.42;;;;;;;;;;5054911;28;20052;-61
2022/08/03 09:23:09;;;;;;;15.35;3.03;;;;;;;;;;5055624;28;20478;-60
2022/08/03 09:25:35;;;;;;;19.40;4.93;;;;;;;;;;5056503;28;20040;-60
2022/08/03 09:28:14;;;;;;;15.13;3.88;;;;;;;;;;5054464;28;20047;-61
2022/08/03 09:30:42;;;;;;;16.52;3.22;;;;;;;;;;5056604;28;20800;-60
2022/08/03 09:33:09;;;;;;;17.90;3.20;;;;;;;;;;5057131;28;20033;-62
2022/08/03 09:35:41;;;;;;;15.98;3.15;;;;;;;;;;5057430;28;20044;-60
2022/08/03 09:38:11;;;;;;;15.63;3.83;;;;;;;;;;5064959;28;20566;-60
2022/08/03 09:40:38;;;;;;;15.77;3.53;;;;;;;;;;5058724;28;20577;-60
2022/08/03 09:43:06;;;;;;;15.93;3.30;;;;;;;;;;5068031;28;20418;-61
2022/08/03 09:45:33;;;;;;;15.32;2.88;;;;;;;;;;5066612;28;20153;-60
2022/08/03 09:48:18;;;;;;;11.38;3.05;;;;;;;;;;5058367;28;20136;-61
2022/08/03 09:50:52;;;;;;;11.52;3.05;;;;;;;;;;5048765;28;20052;-60
2022/08/03 09:53:18;;;;;;;11.68;3.22;;;;;;;;;;5052304;28;20056;-61
2022/08/03 09:55:51;;;;;;;21.00;4.68;;;;;;;;;;5050349;28;20048;-60
2022/08/03 09:58:17;;;;;;;11.35;3.65;;;;;;;;;;5057384;28;20053;-60
2022/08/03 10:00:52;;;;;;;17.63;4.18;;;;;;;;;;5058949;28;20094;-60
2022/08/03 10:03:18;;;;;;;18.55;3.67;;;;;;;;;;5053140;28;20574;-60
2022/08/03 10:05:45;;;;;;;19.80;3.97;;;;;;;;;;5056427;28;20041;-61
2022/08/03 10:08:14;;;;;;;16.75;3.97;;;;;;;;;;5054362;28;20135;-61
2022/08/03 10:10:45;;;;;;;17.27;3.45;;;;;;;;;;5048894;28;20449;-60
2022/08/03 10:13:12;;;;;;;17.88;3.67;;;;;;;;;;5045112;28;20175;-60
2022/08/03 10:15:39;;;;;;;16.05;3.65;;;;;;;;;;5049215;28;20132;-60
2022/08/03 10:18:05;;;;;;;15.95;4.68;;;;;;;;;;5049342;28;20044;-60
2022/08/03 10:20:32;;;;;;;16.08;4.03;;;;;;;;;;5051231;28;20048;-61
2022/08/03 10:22:59;;;;;;;18.40;3.83;;;;;;;;;;5052714;28;20048;-60
2022/08/03 10:25:26;;;;;;;13.68;3.25;;;;;;;;;;5050006;28;20041;-60
2022/08/03 10:27:52;;;;;;;12.98;3.55;;;;;;;;;;5053689;28;20040;-60
2022/08/03 10:30:18;;;;;;;17.23;3.63;;;;;;;;;;5049540;28;20124;-60
2022/08/03 10:32:48;;;;;;;12.15;3.85;;;;;;;;;;5047446;28;20086;-60
2022/08/03 10:35:18;;;;;;;15.63;3.28;;;;;;;;;;5047713;28;20056;-60
2022/08/03 10:37:49;;;;;;;18.65;4.65;;;;;;;;;;5047873;28;20036;-61
2022/08/03 10:40:15;;;;;;;19.08;3.33;;;;;;;;;;5049237;28;20146;-61
2022/08/03 10:42:43;;;;;;;13.75;3.25;;;;;;;;;;5051310;28;20533;-61
2022/08/03 10:45:19;;;;;;;14.50;3.95;;;;;;;;;;5066162;28;20143;-61
2022/08/03 10:47:49;;;;;;;15.63;4.30;;;;;;;;;;5060834;28;20060;-60
2022/08/03 10:50:15;;;;;;;16.60;3.55;;;;;;;;;;5067142;28;20044;-60
2022/08/03 10:52:54;;;;;;;12.45;3.53;;;;;;;;;;5065480;28;20087;-60
2022/08/03 10:58:39;;;;;;;11.73;2.70;;;;;;;;;;5066400;28;20091;-61
2022/08/03 11:01:07;;;;;;;18.95;3.55;;;;;;;;;;5052373;28;20049;-61
2022/08/03 11:03:33;;;;;;;13.40;2.45;;;;;;;;;;5051513;28;20090;-61
2022/08/03 11:06:17;;;;;;;13.60;3.40;;;;;;;;;;5050568;28;20052;-61
2022/08/03 11:08:44;;;;;;;12.93;3.53;;;;;;;;;;5050527;28;20044;-60
2022/08/03 11:11:18;;;;;;;16.67;3.30;;;;;;;;;;5056299;28;20040;-61
2022/08/03 11:14:02;;;;;;;13.68;3.50;;;;;;;;;;5050228;28;20048;-61
2022/08/03 11:16:28;;;;;;;16.92;3.17;;;;;;;;;;5065883;28;20044;-61
2022/08/03 11:19:05;;;;;;;12.80;3.03;;;;;;;;;;5065718;28;20047;-61
2022/08/03 11:21:49;;;;;;;13.65;3.33;;;;;;;;;;5065871;28;20554;-61
2022/08/03 11:24:34;;;;;;;11.05;2.83;;;;;;;;;;5060475;28;20048;-61
2022/08/03 11:27:15;;;;;;;22.00;4.57;;;;;;;;;;5068810;28;20082;-61
2022/08/03 11:29:53;;;;;;;15.80;3.63;;;;;;;;;;5066917;28;20041;-61
2022/08/03 11:32:44;;;;;;;18.00;4.03;;;;;;;;;;5056893;28;21161;-60
2022/08/03 11:35:13;;;;;;;13.82;3.38;;;;;;;;;;5066959;28;20048;-61
2022/08/03 11:37:58;;;;;;;11.55;3.42;;;;;;;;;;5067548;28;20040;-61
2022/08/03 11:40:43;;;;;;;19.30;3.58;;;;;;;;;;5059142;28;20494;-61
2022/08/03 11:43:09;;;;;;;12.93;3.20;;;;;;;;;;5050176;28;20230;-61
2022/08/03 11:45:36;;;;;;;16.45;3.38;;;;;;;;;;5049091;28;20061;-60
2022/08/03 11:48:15;;;;;;;16.38;3.75;;;;;;;;;;5069629;28;20087;-61
2022/08/03 11:50:44;;;;;;;14.07;3.33;;;;;;;;;;5067175;28;20064;-61
2022/08/03 11:53:13;;;;;;;15.23;3.38;;;;;;;;;;5048658;28;20045;-61
2022/08/03 11:55:42;;;;;;;13.48;3.45;;;;;;;;;;5055680;28;20095;-61
2022/08/03 11:58:08;;;;;;;13.82;3.33;;;;;;;;;;5050434;28;20402;-61
2022/08/03 12:00:34;;;;;;;16.88;3.63;;;;;;;;;;5048951;28;20407;-61
2022/08/03 12:03:03;;;;;;;15.32;3.58;;;;;;;;;;5067567;28;20122;-61
2022/08/03 12:05:37;;;;;;;17.90;3.85;;;;;;;;;;5068978;28;20553;-61
2022/08/03 12:08:03;;;;;;;16.10;3.92;;;;;;;;;;5065970;28;20505;-61
2022/08/03 12:10:30;;;;;;;13.02;3.08;;;;;;;;;;5069884;28;20041;-61
2022/08/03 12:12:57;;;;;;;13.68;3.08;;;;;;;;;;5067954;28;20557;-61
2022/08/03 12:15:26;;;;;;;15.95;2.97;;;;;;;;;;5070037;28;20135;-61
2022/08/03 12:17:52;;;;;;;10.52;3.45;;;;;;;;;;5068591;28;20040;-61
2022/08/03 12:20:23;;;;;;;9.13;3.00;;;;;;;;;;5059376;28;20075;-61
2022/08/03 12:22:49;;;;;;;11.30;2.78;;;;;;;;;;5070285;28;20052;-61
2022/08/03 12:25:22;;;;;;;12.95;2.95;;;;;;;;;;5054346;28;20055;-61
2022/08/03 12:27:49;;;;;;;12.90;2.75;;;;;;;;;;5069729;28;20143;-61
2022/08/03 12:30:15;;;;;;;11.80;2.75;;;;;;;;;;5049247;28;20068;-61
2022/08/03 12:32:42;;;;;;;12.82;2.67;;;;;;;;;;5049515;28;20296;-61
2022/08/03 12:35:09;;;;;;;8.80;2.80;;;;;;;;;;5058442;28;20045;-61
2022/08/03 12:37:36;;;;;;;19.38;4.07;;;;;;;;;;5052394;28;20044;-61
2022/08/03 12:40:04;;;;;;;17.15;3.47;;;;;;;;;;5069481;28;20609;-61
2022/08/03 12:42:30;;;;;;;11.73;3.17;;;;;;;;;;5067501;28;20537;-60
2022/08/03 12:44:57;;;;;;;14.32;2.88;;;;;;;;;;5068945;28;20718;-60
2022/08/03 12:47:23;;;;;;;12.82;3.65;;;;;;;;;;5063244;28;20045;-61
2022/08/03 12:49:49;;;;;;;9.65;3.33;;;;;;;;;;5052277;28;20045;-61
2022/08/03 12:52:16;;;;;;;15.10;3.30;;;;;;;;;;5051749;28;20041;-61
2022/08/03 12:54:44;;;;;;;15.52;3.33;;;;;;;;;;5057915;28;20156;-61
2022/08/03 12:57:11;;;;;;;14.48;2.92;;;;;;;;;;5049086;28;20542;-61
2022/08/03 12:59:45;;;;;;;11.23;3.17;;;;;;;;;;5061766;28;20109;-61
2022/08/03 13:02:15;;;;;;;15.07;3.63;;;;;;;;;;5068518;28;20048;-61
2022/08/03 13:04:42;;;;;;;15.35;2.97;;;;;;;;;;5066609;28;20044;-61
2022/08/03 13:07:08;;;;;;;9.20;2.65;;;;;;;;;;5068927;28;20049;-61
2022/08/03 13:09:42;;;;;;;11.82;2.72;;;;;;;;;;5066669;28;20048;-61
2022/08/03 13:12:09;;;;;;;14.15;4.20;;;;;;;;;;5067486;28;20051;-61
2022/08/03 13:14:35;;;;;;;15.02;4.00;;;;;;;;;;5067404;28;20229;-61
2022/08/03 13:17:02;;;;;;;10.40;3.05;;;;;;;;;;5067143;28;20040;-61
2022/08/03 13:19:28;;;;;;;14.63;3.13;;;;;;;;;;5061489;28;20044;-61
2022/08/03 13:21:54;;;;;;;10.88;2.60;;;;;;;;;;5068353;28;20411;-61
2022/08/03 13:24:20;;;;;;;14.35;2.83;;;;;;;;;;5065586;28;20045;-61
2022/08/03 13:26:46;;;;;;;12.00;2.70;;;;;;;;;;5049028;28;20056;-60
2022/08/03 13:29:12;;;;;;;10.15;2.72;;;;;;;;;;5067203;28;20044;-61
2022/08/03 13:31:38;;;;;;;10.93;2.47;;;;;;;;;;5068895;28;20053;-61
2022/08/03 13:34:04;;;;;;;11.38;2.90;;;;;;;;;;5060400;28;20051;-61
2022/08/03 13:36:30;;;;;;;10.02;2.80;;;;;;;;;;5063381;28;20119;-60
2022/08/03 13:38:56;;;;;;;9.52;2.17;;;;;;;;;;5065818;28;20052;-60
2022/08/03 13:41:22;;;;;;;11.20;2.92;;;;;;;;;;5068024;28;20150;-61
2022/08/03 13:43:49;;;;;;;15.88;3.15;;;;;;;;;;5066547;28;20104;-61
2022/08/03 13:46:15;;;;;;;10.40;2.67;;;;;;;;;;5065709;28;20132;-60
2022/08/03 13:48:41;;;;;;;11.13;2.88;;;;;;;;;;5064180;28;20045;-60
2022/08/03 13:51:07;;;;;;;10.15;2.42;;;;;;;;;;5056730;28;20064;-61
2022/08/03 13:53:33;;;;;;;14.02;3.10;;;;;;;;;;5056178;28;20048;-60
2022/08/03 13:55:59;;;;;;;7.55;2.35;;;;;;;;;;5051780;28;20045;-60
2022/08/03 13:58:25;;;;;;;11.25;2.70;;;;;;;;;;5056407;28;20040;-61
2022/08/03 14:00:51;;;;;;;13.45;2.58;;;;;;;;;;5056674;28;20047;-60
2022/08/03 14:03:17;;;;;;;7.90;2.88;;;;;;;;;;5055913;28;20040;-60
2022/08/03 14:05:43;;;;;;;9.13;2.53;;;;;;;;;;5056482;28;20049;-60
2022/08/03 14:08:09;;;;;;;10.77;3.08;;;;;;;;;;5055620;28;20120;-60
2022/08/03 14:10:36;;;;;;;9.98;2.15;;;;;;;;;;5069441;28;20051;-61
2022/08/03 14:13:03;;;;;;;12.35;2.97;;;;;;;;;;5056423;28;20053;-60
2022/08/03 14:15:29;;;;;;;11.05;3.88;;;;;;;;;;5054331;28;20045;-60
2022/08/03 14:17:56;;;;;;;9.93;2.33;;;;;;;;;;5057199;28;20052;-60
2022/08/03 14:20:22;;;;;;;8.27;2.50;;;;;;;;;;5056250;28;20052;-60
2022/08/03 14:22:48;;;;;;;12.50;2.40;;;;;;;;;;5057411;28;20045;-60
2022/08/03 14:25:14;;;;;;;12.77;2.38;;;;;;;;;;5054246;28;20045;-60
2022/08/03 14:27:40;;;;;;;6.38;2.20;;;;;;;;;;5055609;28;20048;-60
2022/08/03 14:30:06;;;;;;;6.82;2.38;;;;;;;;;;5053659;28;20037;-60
2022/08/03 14:32:32;;;;;;;10.73;2.00;;;;;;;;;;5060390;28;20040;-60
2022/08/03 14:34:58;;;;;;;8.38;1.98;;;;;;;;;;5060224;28;20474;-60
2022/08/03 14:37:24;;;;;;;12.35;3.60;;;;;;;;;;5064111;28;20225;-60
2022/08/03 14:39:50;;;;;;;9.32;3.25;;;;;;;;;;5070860;28;20041;-60
2022/08/03 14:42:16;;;;;;;9.23;2.40;;;;;;;;;;5069339;28;20601;-60
2022/08/03 14:44:43;;;;;;;7.80;1.75;;;;;;;;;;5067455;28;20080;-60
2022/08/03 14:47:09;;;;;;;8.85;2.45;;;;;;;;;;5065787;28;20056;-60